createdAt,value
2022-11-05T00:01:55.188Z,8.89
2022-11-05T00:04:40.154Z,8.84
2022-11-05T00:07:31.562Z,8.79
2022-11-05T00:10:03.719Z,8.80
2022-11-05T00:12:49.512Z,8.77
2022-11-05T00:15:34.804Z,8.78
2022-11-05T00:18:01.449Z,8.77
2022-11-05T00:20:28.166Z,8.76
2022-11-05T00:23:23.786Z,8.81
2022-11-05T00:25:55.199Z,8.81
2022-11-05T00:28:22.085Z,8.83
2022-11-05T00:30:48.945Z,8.86
2022-11-05T00:33:15.615Z,8.87
2022-11-05T00:35:42.259Z,8.93
2022-11-05T00:38:08.847Z,8.88
2022-11-05T00:40:36.321Z,8.89
2022-11-05T00:43:21.269Z,8.86
2022-11-05T00:45:47.973Z,8.80
2022-11-05T00:48:33.216Z,8.80
2022-11-05T00:50:59.830Z,8.79
2022-11-05T00:53:26.512Z,8.81
2022-11-05T00:55:53.153Z,8.81
2022-11-05T00:58:22.171Z,8.74
2022-11-05T01:00:51.771Z,8.70
2022-11-05T01:03:22.385Z,8.78
2022-11-05T01:05:52.265Z,8.77
2022-11-05T01:08:21.442Z,8.76
2022-11-05T01:11:11.782Z,8.84
2022-11-05T01:13:39.677Z,8.76
2022-11-05T01:16:08.560Z,8.80
2022-11-05T01:18:38.223Z,8.75
2022-11-05T01:21:15.977Z,8.76
2022-11-05T01:23:42.830Z,8.68
2022-11-05T01:26:09.449Z,8.76
2022-11-05T01:28:36.243Z,8.74
2022-11-05T01:31:03.010Z,8.73
2022-11-05T01:33:29.776Z,8.67
2022-11-05T01:35:56.531Z,8.67
2022-11-05T01:38:23.136Z,8.60
2022-11-05T01:40:49.809Z,8.49
2022-11-05T01:43:23.889Z,8.47
2022-11-05T01:45:54.784Z,8.40
2022-11-05T01:48:36.088Z,8.39
2022-11-05T01:51:08.870Z,8.37
2022-11-05T01:53:47.101Z,8.33
2022-11-05T01:56:21.808Z,8.31
2022-11-05T01:59:14.681Z,8.30
2022-11-05T02:01:41.466Z,8.28
2022-11-05T02:04:16.025Z,8.29
2022-11-05T02:06:46.317Z,8.32
2022-11-05T02:09:26.775Z,8.32
2022-11-05T02:11:53.807Z,8.26
2022-11-05T02:14:21.012Z,8.29
2022-11-05T02:17:19.787Z,8.34
2022-11-05T02:20:41.425Z,8.36
2022-11-05T02:23:29.922Z,8.34
2022-11-05T02:26:08.594Z,8.35
2022-11-05T02:28:50.359Z,8.35
2022-11-05T02:31:47.486Z,8.37
2022-11-05T02:34:36.105Z,8.36
2022-11-05T02:37:28.101Z,8.40
2022-11-05T02:40:01.248Z,8.37
2022-11-05T02:42:38.583Z,8.37
2022-11-05T02:45:40.650Z,8.35
2022-11-05T02:48:30.135Z,8.38
2022-11-05T02:51:12.266Z,8.34
2022-11-05T02:53:58.417Z,8.36
2022-11-05T02:56:31.329Z,8.40
2022-11-05T02:58:58.019Z,8.42
2022-11-05T03:01:24.755Z,8.36
2022-11-05T03:04:04.311Z,8.40
2022-11-05T03:07:05.751Z,8.36
2022-11-05T03:10:00.326Z,8.40
2022-11-05T03:12:44.660Z,8.40
2022-11-05T03:15:35.959Z,8.33
2022-11-05T03:18:14.980Z,8.38
2022-11-05T03:20:58.959Z,8.40
2022-11-05T03:23:42.709Z,8.36
2022-11-05T03:26:31.548Z,8.37
2022-11-05T03:29:06.780Z,8.38
2022-11-05T03:31:35.821Z,8.40
2022-11-05T03:34:05.723Z,8.46
2022-11-05T03:36:41.968Z,8.48
2022-11-05T03:39:18.636Z,8.46
2022-11-05T03:41:49.346Z,8.45
2022-11-05T03:44:32.780Z,8.40
2022-11-05T03:47:21.833Z,8.46
2022-11-05T03:49:55.738Z,8.44
2022-11-05T03:52:28.017Z,8.43
2022-11-05T03:54:55.075Z,8.42
2022-11-05T03:57:26.272Z,8.40
2022-11-05T03:59:52.940Z,8.42
2022-11-05T04:02:22.274Z,8.51
2022-11-05T04:04:49.372Z,8.52
2022-11-05T04:07:34.495Z,8.50
2022-11-05T04:10:19.617Z,8.47
2022-11-05T04:13:05.326Z,8.42
2022-11-05T04:15:51.911Z,8.42
2022-11-05T04:18:19.053Z,8.44
2022-11-05T04:21:04.279Z,8.52
2022-11-05T04:23:49.283Z,8.48
2022-11-05T04:26:15.942Z,8.56
2022-11-05T04:29:06.770Z,8.59
2022-11-05T04:31:34.473Z,8.53
2022-11-05T04:34:01.263Z,8.50
2022-11-05T04:36:28.023Z,8.54
2022-11-05T04:38:54.621Z,8.56
2022-11-05T04:41:21.288Z,8.60
2022-11-05T04:43:47.940Z,8.50
2022-11-05T04:46:14.582Z,8.57
2022-11-05T04:48:41.236Z,8.50
2022-11-05T04:51:07.879Z,8.55
2022-11-05T04:53:34.443Z,8.41
2022-11-05T04:56:28.541Z,8.40
2022-11-05T04:58:55.098Z,8.42
2022-11-05T05:01:23.674Z,8.43
2022-11-05T05:03:51.780Z,8.44
2022-11-05T05:06:19.613Z,8.46
2022-11-05T05:08:50.563Z,8.46
2022-11-05T05:11:19.576Z,8.46
2022-11-05T05:13:46.505Z,8.43
2022-11-05T05:16:27.547Z,8.43
2022-11-05T05:18:54.424Z,8.39
2022-11-05T05:21:41.147Z,8.40
2022-11-05T05:24:13.236Z,8.35
2022-11-05T05:26:42.712Z,8.35
2022-11-05T05:29:10.118Z,8.39
2022-11-05T05:31:37.300Z,8.42
2022-11-05T05:34:04.332Z,8.38
2022-11-05T05:36:31.543Z,8.43
2022-11-05T05:38:58.356Z,8.41
2022-11-05T05:41:25.380Z,8.40
2022-11-05T05:43:52.185Z,8.38
2022-11-05T05:46:19.909Z,8.35
2022-11-05T05:48:51.698Z,8.36
2022-11-05T05:51:19.442Z,8.32
2022-11-05T05:53:46.083Z,8.29
2022-11-05T05:56:15.174Z,8.27
2022-11-05T05:58:41.925Z,8.27
2022-11-05T06:01:17.212Z,8.26
2022-11-05T06:03:45.544Z,8.23
2022-11-05T06:06:13.718Z,8.23
2022-11-05T06:08:41.163Z,8.24
2022-11-05T06:11:08.559Z,8.22
2022-11-05T06:13:36.234Z,8.19
2022-11-05T06:16:05.106Z,8.15
2022-11-05T06:18:32.904Z,8.24
2022-11-05T06:21:08.735Z,8.19
2022-11-05T06:23:36.753Z,8.21
2022-11-05T06:26:05.128Z,8.22
2022-11-05T06:28:33.645Z,8.23
2022-11-05T06:31:00.628Z,8.20
2022-11-05T06:33:27.713Z,8.14
2022-11-05T06:35:54.717Z,8.21
2022-11-05T06:38:21.466Z,8.21
2022-11-05T06:40:48.055Z,8.19
2022-11-05T06:43:14.963Z,8.21
2022-11-05T06:45:42.044Z,8.21
2022-11-05T06:48:08.658Z,8.20
2022-11-05T06:50:35.366Z,8.21
2022-11-05T06:53:04.248Z,8.25
2022-11-05T06:55:31.827Z,8.29
2022-11-05T06:57:58.837Z,8.31
2022-11-05T07:00:26.048Z,8.35
2022-11-05T07:02:53.003Z,8.34
2022-11-05T07:05:19.753Z,8.36
2022-11-05T07:07:46.457Z,8.34
2022-11-05T07:10:16.209Z,8.43
2022-11-05T07:12:43.564Z,8.40
2022-11-05T07:15:12.188Z,8.40
2022-11-05T07:17:39.740Z,8.42
2022-11-05T07:20:08.234Z,8.40
2022-11-05T07:22:35.968Z,8.43
2022-11-05T07:25:03.188Z,8.45
2022-11-05T07:27:29.806Z,8.45
2022-11-05T07:29:56.541Z,8.46
2022-11-05T07:32:23.252Z,8.54
2022-11-05T07:34:49.872Z,8.56
2022-11-05T07:37:19.348Z,8.61
2022-11-05T07:39:46.026Z,8.66
2022-11-05T07:42:13.785Z,8.71
2022-11-05T07:44:40.687Z,8.73
2022-11-05T07:47:07.628Z,8.70
2022-11-05T07:49:34.193Z,8.80
2022-11-05T07:52:00.884Z,8.84
2022-11-05T07:54:27.746Z,9.01
2022-11-05T07:56:54.390Z,9.08
2022-11-05T07:59:21.254Z,9.20
2022-11-05T08:01:47.932Z,9.30
2022-11-05T08:04:14.880Z,9.41
2022-11-05T08:06:41.584Z,9.52
2022-11-05T08:09:09.283Z,9.54
2022-11-05T08:11:36.055Z,9.48
2022-11-05T08:14:02.724Z,9.57
2022-11-05T08:16:29.349Z,9.60
2022-11-05T08:18:56.006Z,9.62
2022-11-05T08:21:22.690Z,9.63
2022-11-05T08:23:49.347Z,9.77
2022-11-05T08:26:16.023Z,10.04
2022-11-05T08:28:42.636Z,10.14
2022-11-05T08:31:09.219Z,10.04
2022-11-05T08:33:35.826Z,10.21
2022-11-05T08:36:04.435Z,10.16
2022-11-05T08:38:30.993Z,10.21
2022-11-05T08:40:58.850Z,10.47
2022-11-05T08:43:25.886Z,10.47
2022-11-05T08:45:52.756Z,10.38
2022-11-05T08:48:19.613Z,10.00
2022-11-05T08:50:48.410Z,9.94
2022-11-05T08:53:16.280Z,10.02
2022-11-05T08:55:44.140Z,9.78
2022-11-05T08:58:15.040Z,9.71
2022-11-05T09:00:42.430Z,9.84
2022-11-05T09:03:09.512Z,9.84
2022-11-05T09:05:39.384Z,9.94
2022-11-05T09:08:06.534Z,9.82
2022-11-05T09:10:33.643Z,9.84
2022-11-05T09:13:00.332Z,9.91
2022-11-05T09:15:28.421Z,9.78
2022-11-05T09:17:55.401Z,9.70
2022-11-05T09:20:22.260Z,9.73
2022-11-05T09:22:48.968Z,9.88
2022-11-05T09:25:16.122Z,10.03
2022-11-05T09:27:43.937Z,10.02
2022-11-05T09:30:11.806Z,9.97
2022-11-05T09:32:38.891Z,10.13
2022-11-05T09:35:07.804Z,10.29
2022-11-05T09:37:36.030Z,10.38
2022-11-05T09:40:02.749Z,10.54
2022-11-05T09:42:42.582Z,10.75
2022-11-05T09:45:15.678Z,10.85
2022-11-05T09:47:47.361Z,11.07
2022-11-05T09:50:25.936Z,11.04
2022-11-05T09:52:52.617Z,10.90
2022-11-05T09:55:26.665Z,11.06
2022-11-05T09:58:01.546Z,10.77
2022-11-05T10:00:30.317Z,10.42
2022-11-05T10:03:18.055Z,10.33
2022-11-05T10:05:45.825Z,10.22
2022-11-05T10:08:23.817Z,10.42
2022-11-05T10:10:56.017Z,10.91
2022-11-05T10:13:33.385Z,11.60
2022-11-05T10:16:14.279Z,11.94
2022-11-05T10:18:44.877Z,11.74
2022-11-05T10:21:32.344Z,11.46
2022-11-05T10:24:15.802Z,11.26
2022-11-05T10:26:43.606Z,10.91
2022-11-05T10:29:13.811Z,11.04
2022-11-05T10:31:40.801Z,11.34
2022-11-05T10:34:09.671Z,11.45
2022-11-05T10:36:39.632Z,11.52
2022-11-05T10:39:18.088Z,11.59
2022-11-05T10:42:12.284Z,11.25
2022-11-05T10:44:53.206Z,11.36
2022-11-05T10:48:02.198Z,11.66
2022-11-05T10:50:30.257Z,12.01
2022-11-05T10:53:19.398Z,11.76
2022-11-05T10:55:51.532Z,12.00
2022-11-05T10:58:18.092Z,12.20
2022-11-05T11:00:53.898Z,12.26
2022-11-05T11:03:46.743Z,11.99
2022-11-05T11:06:25.242Z,11.69
2022-11-05T11:08:53.925Z,11.59
2022-11-05T11:11:39.243Z,11.29
2022-11-05T11:14:11.803Z,11.33
2022-11-05T11:16:40.816Z,11.63
2022-11-05T11:19:32.728Z,11.85
2022-11-05T11:22:05.422Z,12.31
2022-11-05T11:24:45.265Z,12.75
2022-11-05T11:27:34.504Z,13.07
2022-11-05T11:30:04.056Z,13.15
2022-11-05T11:32:39.822Z,13.32
2022-11-05T11:35:18.594Z,13.32
2022-11-05T11:37:46.558Z,13.25
2022-11-05T11:40:22.397Z,13.01
2022-11-05T11:43:02.929Z,12.46
2022-11-05T11:46:04.816Z,12.30
2022-11-05T11:48:36.466Z,12.04
2022-11-05T11:51:17.433Z,11.57
2022-11-05T11:53:43.987Z,11.54
2022-11-05T11:56:16.799Z,11.57
2022-11-05T11:58:51.864Z,11.52
2022-11-05T12:01:36.649Z,11.46
2022-11-05T12:04:10.584Z,11.47
2022-11-05T12:06:52.489Z,11.48
2022-11-05T12:09:37.348Z,11.90
2022-11-05T12:12:15.476Z,12.53
2022-11-05T12:15:09.938Z,12.99
2022-11-05T12:17:56.136Z,12.65
2022-11-05T12:20:27.388Z,12.65
2022-11-05T12:23:12.185Z,12.00
2022-11-05T12:26:08.694Z,12.41
2022-11-05T12:29:17.432Z,13.08
2022-11-05T12:31:51.033Z,13.64
2022-11-05T12:34:55.864Z,13.42
2022-11-05T12:37:37.545Z,13.60
2022-11-05T12:40:43.096Z,13.60
2022-11-05T12:43:16.984Z,12.90
2022-11-05T12:45:49.929Z,12.84
2022-11-05T12:48:37.198Z,12.80
2022-11-05T12:51:24.780Z,13.23
2022-11-05T12:54:09.581Z,13.57
2022-11-05T12:56:41.746Z,13.44
2022-11-05T12:59:47.727Z,13.40
2022-11-05T13:02:28.940Z,13.00
2022-11-05T13:05:01.732Z,13.24
2022-11-05T13:07:33.350Z,13.32
2022-11-05T13:10:07.595Z,13.53
2022-11-05T13:12:39.977Z,13.34
2022-11-05T13:15:24.755Z,13.33
2022-11-05T13:18:03.465Z,13.11
2022-11-05T13:20:34.146Z,12.50
2022-11-05T13:23:35.422Z,12.77
2022-11-05T13:26:19.869Z,12.62
2022-11-05T13:29:11.010Z,12.33
2022-11-05T13:31:49.027Z,12.52
2022-11-05T13:34:15.773Z,12.35
2022-11-05T13:37:17.693Z,12.19
2022-11-05T13:39:47.348Z,12.07
2022-11-05T13:42:32.813Z,11.75
2022-11-05T13:45:20.039Z,11.83
2022-11-05T13:47:55.723Z,11.71
2022-11-05T13:50:45.477Z,11.91
2022-11-05T13:53:42.876Z,11.90
2022-11-05T13:56:30.944Z,11.97
2022-11-05T13:59:03.398Z,11.88
2022-11-05T14:01:45.610Z,11.85
2022-11-05T14:04:26.110Z,11.75
2022-11-05T14:06:53.586Z,11.66
2022-11-05T14:09:25.571Z,11.67
2022-11-05T14:11:58.474Z,11.77
2022-11-05T14:14:29.908Z,11.61
2022-11-05T14:17:08.657Z,11.57
2022-11-05T14:19:48.859Z,11.54
2022-11-05T14:22:33.976Z,11.46
2022-11-05T14:25:02.676Z,11.46
2022-11-05T14:27:29.213Z,11.38
2022-11-05T14:29:56.230Z,11.30
2022-11-05T14:32:25.712Z,11.29
2022-11-05T14:35:04.240Z,11.28
2022-11-05T14:37:37.205Z,11.24
2022-11-05T14:40:21.962Z,11.15
2022-11-05T14:42:58.705Z,11.09
2022-11-05T14:45:40.683Z,10.98
2022-11-05T14:48:27.249Z,11.07
2022-11-05T14:50:55.025Z,10.93
2022-11-05T14:53:41.902Z,10.98
2022-11-05T14:56:15.204Z,10.88
2022-11-05T14:58:43.560Z,10.82
2022-11-05T15:01:35.851Z,10.83
2022-11-05T15:04:17.528Z,10.75
2022-11-05T15:07:02.553Z,10.52
2022-11-05T15:09:35.458Z,10.53
2022-11-05T15:12:20.146Z,10.45
2022-11-05T15:14:51.293Z,10.33
2022-11-05T15:17:30.001Z,10.26
2022-11-05T15:20:18.835Z,10.16
2022-11-05T15:22:49.175Z,10.06
2022-11-05T15:25:24.329Z,9.96
2022-11-05T15:28:01.539Z,9.74
2022-11-05T15:30:28.363Z,9.64
2022-11-05T15:32:55.271Z,9.54
2022-11-05T15:35:31.043Z,9.35
2022-11-05T15:38:02.057Z,9.12
2022-11-05T15:40:33.336Z,8.90
2022-11-05T15:43:10.899Z,8.85
2022-11-05T15:45:37.833Z,8.66
2022-11-05T15:48:13.596Z,8.55
2022-11-05T15:50:41.112Z,8.50
2022-11-05T15:53:47.375Z,8.43
2022-11-05T15:56:45.535Z,8.25
2022-11-05T15:59:20.521Z,8.10
2022-11-05T16:01:50.170Z,8.08
2022-11-05T16:04:19.192Z,8.00
2022-11-05T16:06:49.172Z,7.89
2022-11-05T16:09:26.648Z,7.83
2022-11-05T16:12:18.627Z,7.71
2022-11-05T16:14:58.710Z,7.71
2022-11-05T16:17:46.590Z,7.65
2022-11-05T16:20:28.709Z,7.46
2022-11-05T16:23:03.054Z,7.51
2022-11-05T16:25:43.788Z,7.41
2022-11-05T16:28:25.860Z,7.39
2022-11-05T16:31:01.116Z,7.43
2022-11-05T16:33:39.226Z,7.50
2022-11-05T16:36:07.608Z,7.56
2022-11-05T16:38:34.241Z,7.56
2022-11-05T16:41:00.788Z,7.47
2022-11-05T16:43:27.728Z,7.40
2022-11-05T16:45:58.402Z,7.32
2022-11-05T16:48:25.610Z,7.31
2022-11-05T16:50:52.456Z,7.22
2022-11-05T16:53:19.258Z,7.21
2022-11-05T16:55:46.330Z,7.12
2022-11-05T16:58:22.184Z,7.03
2022-11-05T17:00:55.875Z,6.97
2022-11-05T17:03:22.577Z,6.85
2022-11-05T17:05:49.142Z,6.80
2022-11-05T17:08:15.796Z,6.78
2022-11-05T17:10:42.792Z,6.77
2022-11-05T17:13:14.437Z,6.70
2022-11-05T17:15:43.856Z,6.63
2022-11-05T17:18:16.937Z,6.45
2022-11-05T17:20:46.861Z,6.37
2022-11-05T17:23:16.211Z,6.46
2022-11-05T17:25:45.704Z,6.39
2022-11-05T17:28:13.195Z,6.33
2022-11-05T17:30:41.741Z,6.27
2022-11-05T17:33:09.990Z,6.23
2022-11-05T17:35:41.207Z,6.18
2022-11-05T17:38:08.949Z,6.25
2022-11-05T17:40:36.929Z,6.28
2022-11-05T17:43:04.520Z,6.37
2022-11-05T17:45:31.319Z,6.35
2022-11-05T17:47:57.951Z,6.33
2022-11-05T17:50:24.854Z,6.29
2022-11-05T17:52:51.545Z,6.23
2022-11-05T17:55:18.284Z,6.25
2022-11-05T17:57:49.428Z,6.16
2022-11-05T18:00:18.636Z,6.19
2022-11-05T18:02:46.490Z,6.27
2022-11-05T18:05:13.773Z,6.32
2022-11-05T18:07:40.730Z,6.34
2022-11-05T18:10:09.217Z,6.41
2022-11-05T18:12:36.341Z,6.43
2022-11-05T18:15:03.627Z,6.42
2022-11-05T18:17:30.312Z,6.54
2022-11-05T18:19:56.906Z,6.74
2022-11-05T18:22:23.467Z,6.73
2022-11-05T18:24:50.221Z,6.75
2022-11-05T18:27:16.877Z,6.64
2022-11-05T18:29:43.432Z,6.59
2022-11-05T18:32:10.031Z,6.52
2022-11-05T18:34:36.791Z,6.50
2022-11-05T18:37:03.647Z,6.56
2022-11-05T18:39:30.302Z,6.51
2022-11-05T18:41:56.879Z,6.44
2022-11-05T18:44:24.883Z,6.47
2022-11-05T18:46:57.951Z,6.36
2022-11-05T18:49:25.296Z,6.44
2022-11-05T18:51:51.853Z,6.42
2022-11-05T18:54:18.528Z,6.38
2022-11-05T18:56:45.793Z,6.32
2022-11-05T18:59:35.782Z,6.37
2022-11-05T19:02:00.986Z,6.46
2022-11-05T19:04:27.992Z,6.46
2022-11-05T19:06:54.561Z,6.44
2022-11-05T19:09:21.181Z,6.52
2022-11-05T19:11:47.910Z,6.48
2022-11-05T19:14:14.555Z,6.56
2022-11-05T19:16:41.126Z,6.56
2022-11-05T19:19:07.857Z,6.57
2022-11-05T19:21:34.575Z,6.58
2022-11-05T19:24:02.963Z,6.69
2022-11-05T19:26:30.429Z,6.72
2022-11-05T19:29:01.878Z,6.74
2022-11-05T19:31:30.051Z,6.82
2022-11-05T19:33:56.794Z,6.84
2022-11-05T19:36:24.768Z,6.84
2022-11-05T19:39:00.333Z,6.86
2022-11-05T19:41:28.022Z,6.80
2022-11-05T19:43:55.508Z,6.81
2022-11-05T19:46:23.645Z,6.79
2022-11-05T19:48:51.129Z,6.75
2022-11-05T19:51:21.385Z,6.74
2022-11-05T19:53:48.238Z,6.64
2022-11-05T19:56:17.300Z,6.65
2022-11-05T19:58:44.365Z,6.65
2022-11-05T20:01:12.913Z,6.67
2022-11-05T20:03:40.238Z,6.76
2022-11-05T20:06:10.615Z,6.77
2022-11-05T20:08:53.361Z,6.86
2022-11-05T20:11:25.494Z,6.83
2022-11-05T20:13:52.259Z,6.78
2022-11-05T20:16:24.316Z,6.79
2022-11-05T20:18:51.505Z,6.79
2022-11-05T20:21:18.921Z,6.81
2022-11-05T20:23:46.590Z,6.72
2022-11-05T20:26:14.013Z,6.65
2022-11-05T20:28:41.440Z,6.68
2022-11-05T20:31:11.020Z,6.64
2022-11-05T20:33:39.325Z,6.62
2022-11-05T20:36:08.769Z,6.71
2022-11-05T20:38:35.537Z,6.71
2022-11-05T20:41:14.408Z,6.81
2022-11-05T20:43:41.880Z,6.71
2022-11-05T20:46:11.892Z,6.80
2022-11-05T20:48:38.564Z,6.93
2022-11-05T20:51:07.959Z,6.95
2022-11-05T20:53:35.148Z,7.03
2022-11-05T20:56:07.483Z,7.05
2022-11-05T20:58:36.078Z,7.05
2022-11-05T21:01:02.750Z,6.98
2022-11-05T21:03:30.762Z,6.89
2022-11-05T21:05:59.998Z,6.87
2022-11-05T21:08:27.906Z,6.90
2022-11-05T21:10:55.498Z,7.00
2022-11-05T21:13:22.958Z,6.93
2022-11-05T21:15:55.556Z,6.99
2022-11-05T21:18:25.007Z,6.93
2022-11-05T21:20:52.224Z,6.84
2022-11-05T21:23:19.179Z,6.84
2022-11-05T21:25:46.700Z,6.81
2022-11-05T21:28:14.682Z,6.83
2022-11-05T21:30:45.081Z,6.85
2022-11-05T21:33:13.680Z,6.83
2022-11-05T21:35:45.958Z,6.73
2022-11-05T21:38:14.752Z,6.72
2022-11-05T21:40:41.880Z,6.77
2022-11-05T21:43:09.266Z,6.86
2022-11-05T21:45:38.863Z,6.77
2022-11-05T21:48:06.267Z,6.92
2022-11-05T21:50:51.224Z,6.85
2022-11-05T21:53:36.778Z,6.77
2022-11-05T21:56:37.031Z,6.85
2022-11-05T21:59:23.710Z,6.97
2022-11-05T22:01:51.185Z,6.86
2022-11-05T22:04:17.884Z,6.86
2022-11-05T22:06:44.434Z,6.92
2022-11-05T22:09:10.995Z,7.00
2022-11-05T22:11:38.032Z,6.97
2022-11-05T22:14:04.730Z,6.97
2022-11-05T22:16:31.271Z,7.07
2022-11-05T22:18:58.966Z,7.01
2022-11-05T22:21:25.507Z,6.98
2022-11-05T22:23:53.321Z,7.01
2022-11-05T22:26:19.999Z,6.97
2022-11-05T22:28:46.603Z,6.89
2022-11-05T22:31:14.864Z,6.91
2022-11-05T22:33:42.002Z,6.87
2022-11-05T22:36:09.709Z,6.92
2022-11-05T22:38:36.592Z,6.88
2022-11-05T22:41:15.905Z,6.88
2022-11-05T22:43:42.469Z,6.88
2022-11-05T22:46:14.764Z,6.85
2022-11-05T22:48:42.787Z,6.89
2022-11-05T22:51:12.398Z,6.95
2022-11-05T22:53:40.513Z,6.88
2022-11-05T22:56:11.012Z,6.88
2022-11-05T22:58:37.937Z,6.80
2022-11-05T23:01:05.711Z,6.77
2022-11-05T23:03:34.364Z,6.81
2022-11-05T23:06:28.005Z,6.79
2022-11-05T23:09:13.071Z,6.81
2022-11-05T23:11:41.542Z,6.77
2022-11-05T23:14:10.825Z,6.78
2022-11-05T23:16:56.581Z,6.78
2022-11-05T23:19:42.219Z,6.74
2022-11-05T23:22:39.812Z,6.68
2022-11-05T23:25:08.856Z,6.65
2022-11-05T23:27:37.401Z,6.64
2022-11-05T23:30:11.916Z,6.58
2022-11-05T23:32:39.088Z,6.62
2022-11-05T23:35:06.565Z,6.58
2022-11-05T23:37:52.228Z,6.54
2022-11-05T23:40:24.808Z,6.49
2022-11-05T23:43:10.384Z,6.42
2022-11-05T23:46:00.261Z,6.42
2022-11-05T23:48:33.654Z,6.44
2022-11-05T23:51:06.163Z,6.41
2022-11-05T23:53:35.298Z,6.41
2022-11-05T23:56:03.549Z,6.43
2022-11-05T23:58:30.433Z,6.45
